sensor_id;sensor_type;location;lat;lon;timestamp;pressure;altitude;pressure_sealevel;temperature;humidity
72587;BME280;60621;49.576;11.024;2022-08-21T00:00:38;98392.69;;;18.49;79.86
72587;BME280;60621;49.576;11.024;2022-08-21T00:01:44;98395.38;;;18.49;79.61
72587;BME280;60621;49.576;11.024;2022-08-21T00:02:50;98389.94;;;18.56;79.37
72587;BME280;60621;49.576;11.024;2022-08-21T00:03:53;98388.22;;;18.42;79.48
72587;BME280;60621;49.576;11.024;2022-08-21T00:04:54;98387.88;;;18.40;79.25
72587;BME280;60621;49.576;11.024;2022-08-21T00:05:58;98393.91;;;18.45;79.53
72587;BME280;60621;49.576;11.024;2022-08-21T00:06:59;98388.16;;;18.46;78.66
72587;BME280;60621;49.576;11.024;2022-08-21T00:08:01;98382.22;;;18.35;79.36
72587;BME280;60621;49.576;11.024;2022-08-21T00:09:06;98383.72;;;18.36;79.16
72587;BME280;60621;49.576;11.024;2022-08-21T00:10:08;98376.69;;;18.22;79.86
72587;BME280;60621;49.576;11.024;2022-08-21T00:11:09;98385.56;;;18.15;80.27
72587;BME280;60621;49.576;11.024;2022-08-21T00:12:12;98382.94;;;18.12;80.31
72587;BME280;60621;49.576;11.024;2022-08-21T00:13:15;98386.00;;;18.10;80.89
72587;BME280;60621;49.576;11.024;2022-08-21T00:14:19;98391.69;;;18.12;80.78
72587;BME280;60621;49.576;11.024;2022-08-21T00:15:25;98394.47;;;18.05;80.76
72587;BME280;60621;49.576;11.024;2022-08-21T00:16:27;98389.88;;;18.06;80.72
72587;BME280;60621;49.576;11.024;2022-08-21T00:17:29;98393.72;;;18.05;80.87
72587;BME280;60621;49.576;11.024;2022-08-21T00:18:31;98389.91;;;18.02;80.69
72587;BME280;60621;49.576;11.024;2022-08-21T00:19:33;98390.03;;;17.95;81.22
72587;BME280;60621;49.576;11.024;2022-08-21T00:20:35;98389.97;;;17.99;81.42
72587;BME280;60621;49.576;11.024;2022-08-21T00:21:36;98388.03;;;17.99;81.02
72587;BME280;60621;49.576;11.024;2022-08-21T00:22:39;98390.78;;;17.96;81.25
72587;BME280;60621;49.576;11.024;2022-08-21T00:23:41;98394.53;;;17.98;81.06
72587;BME280;60621;49.576;11.024;2022-08-21T00:24:43;98397.28;;;17.95;80.78
72587;BME280;60621;49.576;11.024;2022-08-21T00:25:45;98396.41;;;18.01;80.77
72587;BME280;60621;49.576;11.024;2022-08-21T00:26:47;98392.84;;;18.11;79.67
72587;BME280;60621;49.576;11.024;2022-08-21T00:27:48;98390.53;;;18.13;79.72
72587;BME280;60621;49.576;11.024;2022-08-21T00:28:51;98392.44;;;18.13;79.48
72587;BME280;60621;49.576;11.024;2022-08-21T00:29:52;98401.72;;;18.05;79.73
72587;BME280;60621;49.576;11.024;2022-08-21T00:30:54;98401.28;;;18.10;79.44
72587;BME280;60621;49.576;11.024;2022-08-21T00:31:57;98402.81;;;18.07;79.67
72587;BME280;60621;49.576;11.024;2022-08-21T00:33:01;98399.75;;;18.09;79.52
72587;BME280;60621;49.576;11.024;2022-08-21T00:34:03;98401.75;;;18.01;79.87
72587;BME280;60621;49.576;11.024;2022-08-21T00:35:08;98408.69;;;17.95;80.63
72587;BME280;60621;49.576;11.024;2022-08-21T00:36:10;98395.41;;;17.91;80.82
72587;BME280;60621;49.576;11.024;2022-08-21T00:37:11;98396.19;;;17.88;81.09
72587;BME280;60621;49.576;11.024;2022-08-21T00:38:13;98399.16;;;17.94;80.79
72587;BME280;60621;49.576;11.024;2022-08-21T00:39:15;98393.81;;;17.94;80.62
72587;BME280;60621;49.576;11.024;2022-08-21T00:40:21;98392.28;;;17.97;80.14
72587;BME280;60621;49.576;11.024;2022-08-21T00:41:23;98392.31;;;17.93;80.49
72587;BME280;60621;49.576;11.024;2022-08-21T00:42:39;98387.81;;;17.90;80.78
72587;BME280;60621;49.576;11.024;2022-08-21T00:43:40;98386.69;;;17.87;80.78
72587;BME280;60621;49.576;11.024;2022-08-21T00:44:46;98389.78;;;17.82;81.36
72587;BME280;60621;49.576;11.024;2022-08-21T00:45:49;98391.72;;;17.82;81.30
72587;BME280;60621;49.576;11.024;2022-08-21T00:46:50;98390.41;;;17.94;80.77
72587;BME280;60621;49.576;11.024;2022-08-21T00:47:52;98386.50;;;18.02;79.94
72587;BME280;60621;49.576;11.024;2022-08-21T00:48:56;98381.91;;;18.02;79.88
72587;BME280;60621;49.576;11.024;2022-08-21T00:49:59;98380.81;;;18.00;80.14
72587;BME280;60621;49.576;11.024;2022-08-21T00:51:11;98376.13;;;18.07;79.75
72587;BME280;60621;49.576;11.024;2022-08-21T00:52:17;98382.97;;;18.08;79.66
72587;BME280;60621;49.576;11.024;2022-08-21T00:53:21;98386.09;;;18.03;79.61
72587;BME280;60621;49.576;11.024;2022-08-21T00:54:24;98375.50;;;17.96;80.00
72587;BME280;60621;49.576;11.024;2022-08-21T00:55:28;98380.94;;;17.89;80.28
72587;BME280;60621;49.576;11.024;2022-08-21T00:56:32;98374.94;;;17.81;80.82
72587;BME280;60621;49.576;11.024;2022-08-21T00:57:44;98379.47;;;17.84;80.84
72587;BME280;60621;49.576;11.024;2022-08-21T00:58:51;98369.47;;;17.92;80.61
72587;BME280;60621;49.576;11.024;2022-08-21T00:59:58;98366.00;;;17.95;80.03
72587;BME280;60621;49.576;11.024;2022-08-21T01:01:02;98374.63;;;18.06;79.68
72587;BME280;60621;49.576;11.024;2022-08-21T01:02:09;98373.09;;;18.05;79.35
72587;BME280;60621;49.576;11.024;2022-08-21T01:03:15;98376.31;;;17.93;80.29
72587;BME280;60621;49.576;11.024;2022-08-21T01:04:18;98381.75;;;17.86;80.82
72587;BME280;60621;49.576;11.024;2022-08-21T01:05:20;98377.16;;;17.86;80.85
72587;BME280;60621;49.576;11.024;2022-08-21T01:06:21;98373.75;;;17.86;80.47
72587;BME280;60621;49.576;11.024;2022-08-21T01:07:23;98378.63;;;17.91;80.58
72587;BME280;60621;49.576;11.024;2022-08-21T01:08:28;98382.00;;;17.95;79.97
72587;BME280;60621;49.576;11.024;2022-08-21T01:09:30;98373.28;;;17.91;80.08
72587;BME280;60621;49.576;11.024;2022-08-21T01:10:32;98373.25;;;17.95;79.43
72587;BME280;60621;49.576;11.024;2022-08-21T01:11:34;98380.94;;;17.89;79.64
72587;BME280;60621;49.576;11.024;2022-08-21T01:12:36;98375.56;;;17.92;79.78
72587;BME280;60621;49.576;11.024;2022-08-21T01:13:38;98375.09;;;17.98;79.26
72587;BME280;60621;49.576;11.024;2022-08-21T01:14:45;98377.38;;;17.99;79.31
72587;BME280;60621;49.576;11.024;2022-08-21T01:15:48;98368.88;;;18.08;78.91
72587;BME280;60621;49.576;11.024;2022-08-21T01:16:52;98370.44;;;18.05;78.69
72587;BME280;60621;49.576;11.024;2022-08-21T01:17:55;98372.03;;;17.99;78.87
72587;BME280;60621;49.576;11.024;2022-08-21T01:18:56;98375.94;;;17.95;78.98
72587;BME280;60621;49.576;11.024;2022-08-21T01:19:59;98366.84;;;17.88;79.35
72587;BME280;60621;49.576;11.024;2022-08-21T01:22:08;98369.16;;;17.86;79.14
72587;BME280;60621;49.576;11.024;2022-08-21T01:23:11;98374.09;;;17.88;79.08
72587;BME280;60621;49.576;11.024;2022-08-21T01:24:13;98373.63;;;17.93;79.05
72587;BME280;60621;49.576;11.024;2022-08-21T01:25:16;98370.59;;;17.95;78.77
72587;BME280;60621;49.576;11.024;2022-08-21T01:26:28;98369.69;;;17.74;79.41
72587;BME280;60621;49.576;11.024;2022-08-21T01:27:34;98370.56;;;17.60;80.31
72587;BME280;60621;49.576;11.024;2022-08-21T01:28:41;98374.88;;;17.51;80.79
72587;BME280;60621;49.576;11.024;2022-08-21T01:29:51;98376.44;;;17.48;81.25
72587;BME280;60621;49.576;11.024;2022-08-21T01:30:54;98382.53;;;17.49;81.11
72587;BME280;60621;49.576;11.024;2022-08-21T01:31:58;98381.03;;;17.48;81.13
72587;BME280;60621;49.576;11.024;2022-08-21T01:33:00;98386.72;;;17.46;81.18
72587;BME280;60621;49.576;11.024;2022-08-21T01:34:03;98384.16;;;17.39;81.73
72587;BME280;60621;49.576;11.024;2022-08-21T01:35:05;98386.06;;;17.38;82.15
72587;BME280;60621;49.576;11.024;2022-08-21T01:36:07;98386.81;;;17.39;82.00
72587;BME280;60621;49.576;11.024;2022-08-21T01:37:10;98380.28;;;17.47;81.93
72587;BME280;60621;49.576;11.024;2022-08-21T01:38:12;98384.72;;;17.57;81.41
72587;BME280;60621;49.576;11.024;2022-08-21T01:39:13;98382.69;;;17.69;80.91
72587;BME280;60621;49.576;11.024;2022-08-21T01:40:16;98383.09;;;17.67;80.74
72587;BME280;60621;49.576;11.024;2022-08-21T01:41:19;98379.31;;;17.61;81.24
72587;BME280;60621;49.576;11.024;2022-08-21T01:42:20;98378.94;;;17.62;81.03
72587;BME280;60621;49.576;11.024;2022-08-21T01:43:22;98386.25;;;17.55;81.63
72587;BME280;60621;49.576;11.024;2022-08-21T01:44:39;98383.69;;;17.48;81.60
72587;BME280;60621;49.576;11.024;2022-08-21T01:45:41;98381.81;;;17.45;81.99
72587;BME280;60621;49.576;11.024;2022-08-21T01:46:42;98379.16;;;17.45;82.09
72587;BME280;60621;49.576;11.024;2022-08-21T01:47:44;98383.00;;;17.40;82.09
72587;BME280;60621;49.576;11.024;2022-08-21T01:48:46;98383.00;;;17.40;82.48
72587;BME280;60621;49.576;11.024;2022-08-21T01:49:48;98376.16;;;17.39;82.26
72587;BME280;60621;49.576;11.024;2022-08-21T01:50:49;98376.16;;;17.39;82.09
72587;BME280;60621;49.576;11.024;2022-08-21T01:51:57;98372.63;;;17.49;81.89
72587;BME280;60621;49.576;11.024;2022-08-21T01:52:59;98374.41;;;17.59;81.51
72587;BME280;60621;49.576;11.024;2022-08-21T01:54:00;98378.56;;;17.60;80.83
72587;BME280;60621;49.576;11.024;2022-08-21T01:55:04;98372.59;;;17.53;81.56
72587;BME280;60621;49.576;11.024;2022-08-21T01:56:09;98375.63;;;17.51;81.62
72587;BME280;60621;49.576;11.024;2022-08-21T01:57:14;98371.09;;;17.48;81.58
72587;BME280;60621;49.576;11.024;2022-08-21T01:58:16;98374.59;;;17.41;82.20
72587;BME280;60621;49.576;11.024;2022-08-21T01:59:18;98373.78;;;17.48;81.99
72587;BME280;60621;49.576;11.024;2022-08-21T02:00:21;98363.06;;;17.52;81.91
72587;BME280;60621;49.576;11.024;2022-08-21T02:01:26;98360.94;;;17.74;80.98
72587;BME280;60621;49.576;11.024;2022-08-21T02:02:27;98376.91;;;17.77;80.51
72587;BME280;60621;49.576;11.024;2022-08-21T02:03:29;98365.88;;;17.72;80.75
72587;BME280;60621;49.576;11.024;2022-08-21T02:04:36;98367.88;;;17.64;81.46
72587;BME280;60621;49.576;11.024;2022-08-21T02:05:38;98360.28;;;17.62;81.12
72587;BME280;60621;49.576;11.024;2022-08-21T02:06:39;98365.69;;;17.55;81.71
72587;BME280;60621;49.576;11.024;2022-08-21T02:07:48;98358.44;;;17.56;81.48
72587;BME280;60621;49.576;11.024;2022-08-21T02:08:51;98361.50;;;17.54;81.50
72587;BME280;60621;49.576;11.024;2022-08-21T02:09:52;98355.41;;;17.54;81.43
72587;BME280;60621;49.576;11.024;2022-08-21T02:10:56;98365.72;;;17.52;81.49
72587;BME280;60621;49.576;11.024;2022-08-21T02:11:57;98360.38;;;17.52;81.56
72587;BME280;60621;49.576;11.024;2022-08-21T02:13:00;98360.38;;;17.52;82.03
72587;BME280;60621;49.576;11.024;2022-08-21T02:14:02;98365.31;;;17.57;82.03
72587;BME280;60621;49.576;11.024;2022-08-21T02:15:05;98362.97;;;17.59;81.94
72587;BME280;60621;49.576;11.024;2022-08-21T02:16:07;98357.69;;;17.55;82.05
72587;BME280;60621;49.576;11.024;2022-08-21T02:17:09;98358.06;;;17.57;81.99
72587;BME280;60621;49.576;11.024;2022-08-21T02:18:11;98364.50;;;17.60;81.51
72587;BME280;60621;49.576;11.024;2022-08-21T02:19:14;98353.84;;;17.56;81.81
72587;BME280;60621;49.576;11.024;2022-08-21T02:21:56;98358.78;;;17.61;81.84
72587;BME280;60621;49.576;11.024;2022-08-21T02:22:58;98357.19;;;17.64;81.80
72587;BME280;60621;49.576;11.024;2022-08-21T02:24:00;98364.03;;;17.65;81.59
72587;BME280;60621;49.576;11.024;2022-08-21T02:25:01;98359.16;;;17.60;82.04
72587;BME280;60621;49.576;11.024;2022-08-21T02:26:05;98362.22;;;17.58;81.97
72587;BME280;60621;49.576;11.024;2022-08-21T02:27:07;98358.84;;;17.54;82.20
72587;BME280;60621;49.576;11.024;2022-08-21T02:28:12;98358.84;;;17.54;82.19
72587;BME280;60621;49.576;11.024;2022-08-21T02:29:14;98361.16;;;17.52;82.09
72587;BME280;60621;49.576;11.024;2022-08-21T02:30:21;98363.75;;;17.56;82.12
72587;BME280;60621;49.576;11.024;2022-08-21T02:31:23;98362.63;;;17.57;81.91
72587;BME280;60621;49.576;11.024;2022-08-21T02:32:26;98363.00;;;17.55;82.09
72587;BME280;60621;49.576;11.024;2022-08-21T02:33:28;98357.78;;;17.48;82.51
72587;BME280;60621;49.576;11.024;2022-08-21T02:34:29;98364.59;;;17.53;82.88
72587;BME280;60621;49.576;11.024;2022-08-21T02:35:31;98361.50;;;17.54;82.76
72587;BME280;60621;49.576;11.024;2022-08-21T02:36:33;98365.66;;;17.59;82.76
72587;BME280;60621;49.576;11.024;2022-08-21T02:37:46;98367.13;;;17.63;82.15
72587;BME280;60621;49.576;11.024;2022-08-21T02:38:48;98363.31;;;17.61;82.21
72587;BME280;60621;49.576;11.024;2022-08-21T02:39:50;98370.63;;;17.57;81.96
72587;BME280;60621;49.576;11.024;2022-08-21T02:40:52;98362.25;;;17.55;82.62
72587;BME280;60621;49.576;11.024;2022-08-21T02:41:55;98367.97;;;17.57;82.32
72587;BME280;60621;49.576;11.024;2022-08-21T02:43:00;98362.25;;;17.55;82.64
72587;BME280;60621;49.576;11.024;2022-08-21T02:44:02;98373.66;;;17.59;82.56
72587;BME280;60621;49.576;11.024;2022-08-21T02:45:03;98359.97;;;17.57;82.49
72587;BME280;60621;49.576;11.024;2022-08-21T02:46:07;98369.84;;;17.56;82.50
72587;BME280;60621;49.576;11.024;2022-08-21T02:47:09;98372.94;;;17.55;82.77
72587;BME280;60621;49.576;11.024;2022-08-21T02:48:14;98372.94;;;17.55;82.87
72587;BME280;60621;49.576;11.024;2022-08-21T02:49:15;98372.19;;;17.54;82.78
72587;BME280;60621;49.576;11.024;2022-08-21T02:50:24;98368.03;;;17.50;82.62
72587;BME280;60621;49.576;11.024;2022-08-21T02:51:27;98374.44;;;17.56;82.84
72587;BME280;60621;49.576;11.024;2022-08-21T02:52:29;98368.56;;;17.72;82.13
72587;BME280;60621;49.576;11.024;2022-08-21T02:53:31;98371.16;;;17.79;81.49
72587;BME280;60621;49.576;11.024;2022-08-21T02:54:33;98370.69;;;17.84;81.33
72587;BME280;60621;49.576;11.024;2022-08-21T02:55:35;98369.16;;;17.86;81.09
72587;BME280;60621;49.576;11.024;2022-08-21T02:56:37;98375.69;;;17.82;81.19
72587;BME280;60621;49.576;11.024;2022-08-21T02:57:39;98369.31;;;17.76;81.58
72587;BME280;60621;49.576;11.024;2022-08-21T02:58:47;98372.34;;;17.74;81.90
72587;BME280;60621;49.576;11.024;2022-08-21T02:59:50;98368.94;;;17.74;82.05
72587;BME280;60621;49.576;11.024;2022-08-21T03:00:51;98371.22;;;17.72;81.92
72587;BME280;60621;49.576;11.024;2022-08-21T03:01:53;98367.44;;;17.69;82.26
72587;BME280;60621;49.576;11.024;2022-08-21T03:02:56;98372.41;;;17.67;82.67
72587;BME280;60621;49.576;11.024;2022-08-21T03:03:58;98373.16;;;17.67;82.66
72587;BME280;60621;49.576;11.024;2022-08-21T03:04:59;98379.28;;;17.64;82.47
72587;BME280;60621;49.576;11.024;2022-08-21T03:06:02;98371.66;;;17.66;82.69
72587;BME280;60621;49.576;11.024;2022-08-21T03:07:04;98360.63;;;17.64;82.47
72587;BME280;60621;49.576;11.024;2022-08-21T03:08:13;98361.38;;;17.65;81.91
72587;BME280;60621;49.576;11.024;2022-08-21T03:09:15;98356.75;;;17.69;81.75
72587;BME280;60621;49.576;11.024;2022-08-21T03:10:16;98356.72;;;17.76;80.71
72587;BME280;60621;49.576;11.024;2022-08-21T03:11:18;98360.50;;;17.75;80.05
72587;BME280;60621;49.576;11.024;2022-08-21T03:12:23;98354.84;;;17.73;80.52
72587;BME280;60621;49.576;11.024;2022-08-21T03:13:28;98358.22;;;17.77;80.35
72587;BME280;60621;49.576;11.024;2022-08-21T03:14:29;98363.00;;;17.89;79.41
72587;BME280;60621;49.576;11.024;2022-08-21T03:15:32;98355.31;;;17.95;78.96
72587;BME280;60621;49.576;11.024;2022-08-21T03:16:33;98361.53;;;17.85;78.86
72587;BME280;60621;49.576;11.024;2022-08-21T03:17:36;98362.06;;;17.73;79.04
72587;BME280;60621;49.576;11.024;2022-08-21T03:18:38;98361.81;;;17.60;80.19
72587;BME280;60621;49.576;11.024;2022-08-21T03:19:40;98361.09;;;17.56;80.71
72587;BME280;60621;49.576;11.024;2022-08-21T03:20:42;98364.91;;;17.58;80.75
72587;BME280;60621;49.576;11.024;2022-08-21T03:21:46;98363.84;;;17.52;80.91
72587;BME280;60621;49.576;11.024;2022-08-21T03:22:48;98368.00;;;17.53;81.22
72587;BME280;60621;49.576;11.024;2022-08-21T03:23:53;98374.53;;;17.49;81.67
72587;BME280;60621;49.576;11.024;2022-08-21T03:24:55;98374.56;;;17.45;82.15
72587;BME280;60621;49.576;11.024;2022-08-21T03:25:58;98368.88;;;17.43;82.33
72587;BME280;60621;49.576;11.024;2022-08-21T03:27:00;98371.53;;;17.43;82.47
72587;BME280;60621;49.576;11.024;2022-08-21T03:28:04;98374.97;;;17.44;82.52
72587;BME280;60621;49.576;11.024;2022-08-21T03:29:06;98372.66;;;17.46;82.28
72587;BME280;60621;49.576;11.024;2022-08-21T03:30:09;98376.88;;;17.43;82.13
72587;BME280;60621;49.576;11.024;2022-08-21T03:31:11;98376.50;;;17.41;82.32
72587;BME280;60621;49.576;11.024;2022-08-21T03:32:12;98375.41;;;17.38;82.58
72587;BME280;60621;49.576;11.024;2022-08-21T03:33:14;98376.19;;;17.35;82.98
72587;BME280;60621;49.576;11.024;2022-08-21T03:34:16;98374.31;;;17.32;82.70
72587;BME280;60621;49.576;11.024;2022-08-21T03:35:18;98372.41;;;17.33;83.00
72587;BME280;60621;49.576;11.024;2022-08-21T03:36:20;98372.44;;;17.29;82.27
72587;BME280;60621;49.576;11.024;2022-08-21T03:37:22;98380.06;;;17.27;82.91
72587;BME280;60621;49.576;11.024;2022-08-21T03:38:27;98376.66;;;17.27;82.76
72587;BME280;60621;49.576;11.024;2022-08-21T03:39:29;98378.56;;;17.26;82.78
72587;BME280;60621;49.576;11.024;2022-08-21T03:40:31;98375.50;;;17.28;82.90
72587;BME280;60621;49.576;11.024;2022-08-21T03:41:32;98380.88;;;17.24;82.93
72587;BME280;60621;49.576;11.024;2022-08-21T03:42:34;98381.63;;;17.25;83.14
72587;BME280;60621;49.576;11.024;2022-08-21T03:43:36;98380.88;;;17.24;83.34
72587;BME280;60621;49.576;11.024;2022-08-21T03:44:37;98378.59;;;17.23;83.30
72587;BME280;60621;49.576;11.024;2022-08-21T03:45:40;98383.19;;;17.22;83.41
72587;BME280;60621;49.576;11.024;2022-08-21T03:46:42;98382.00;;;17.23;83.57
72587;BME280;60621;49.576;11.024;2022-08-21T03:48:00;98380.81;;;17.28;83.74
72587;BME280;60621;49.576;11.024;2022-08-21T03:49:04;98384.50;;;17.41;82.91
72587;BME280;60621;49.576;11.024;2022-08-21T03:50:05;98380.69;;;17.42;83.04
72587;BME280;60621;49.576;11.024;2022-08-21T03:51:07;98378.00;;;17.42;83.11
72587;BME280;60621;49.576;11.024;2022-08-21T03:52:09;98382.66;;;17.38;83.07
72587;BME280;60621;49.576;11.024;2022-08-21T03:53:12;98373.56;;;17.32;83.60
72587;BME280;60621;49.576;11.024;2022-08-21T03:54:18;98386.13;;;17.31;83.74
72587;BME280;60621;49.576;11.024;2022-08-21T03:55:19;98376.63;;;17.30;83.55
72587;BME280;60621;49.576;11.024;2022-08-21T03:56:21;98387.41;;;17.20;84.08
72587;BME280;60621;49.576;11.024;2022-08-21T03:57:23;98384.78;;;17.12;84.97
72587;BME280;60621;49.576;11.024;2022-08-21T03:58:26;98385.19;;;17.11;84.61
72587;BME280;60621;49.576;11.024;2022-08-21T03:59:28;98383.72;;;17.06;85.09
72587;BME280;60621;49.576;11.024;2022-08-21T04:00:29;98386.78;;;17.05;84.93
72587;BME280;60621;49.576;11.024;2022-08-21T04:01:31;98381.41;;;17.08;85.10
72587;BME280;60621;49.576;11.024;2022-08-21T04:02:32;98387.13;;;17.07;85.13
72587;BME280;60621;49.576;11.024;2022-08-21T04:03:35;98387.59;;;16.98;85.38
72587;BME280;60621;49.576;11.024;2022-08-21T04:04:37;98383.06;;;16.95;nan
72587;BME280;60621;49.576;11.024;2022-08-21T04:05:39;98383.63;;;17.13;85.38
72587;BME280;60621;49.576;11.024;2022-08-21T04:06:41;98379.75;;;17.22;84.40
72587;BME280;60621;49.576;11.024;2022-08-21T04:07:43;98383.16;;;17.26;84.23
72587;BME280;60621;49.576;11.024;2022-08-21T04:08:45;98388.78;;;17.31;84.20
72587;BME280;60621;49.576;11.024;2022-08-21T04:09:47;98378.00;;;17.42;83.01
72587;BME280;60621;49.576;11.024;2022-08-21T04:10:51;98380.31;;;17.44;82.72
72587;BME280;60621;49.576;11.024;2022-08-21T04:11:53;98378.34;;;17.48;82.71
72587;BME280;60621;49.576;11.024;2022-08-21T04:12:55;98383.97;;;17.57;82.21
72587;BME280;60621;49.576;11.024;2022-08-21T04:13:57;98388.16;;;17.58;82.01
72587;BME280;60621;49.576;11.024;2022-08-21T04:14:59;98392.31;;;17.59;81.52
72587;BME280;60621;49.576;11.024;2022-08-21T04:16:03;98392.25;;;17.66;81.40
72587;BME280;60621;49.576;11.024;2022-08-21T04:17:06;98391.56;;;17.58;81.67
72587;BME280;60621;49.576;11.024;2022-08-21T04:18:08;98387.09;;;17.48;82.48
72587;BME280;60621;49.576;11.024;2022-08-21T04:19:11;98388.34;;;17.40;82.88
72587;BME280;60621;49.576;11.024;2022-08-21T04:20:15;98383.75;;;17.40;82.64
72587;BME280;60621;49.576;11.024;2022-08-21T04:21:17;98384.53;;;17.37;83.00
72587;BME280;60621;49.576;11.024;2022-08-21T04:22:24;98384.91;;;17.39;82.96
72587;BME280;60621;49.576;11.024;2022-08-21T04:23:26;98394.44;;;17.37;82.97
72587;BME280;60621;49.576;11.024;2022-08-21T04:24:28;98383.72;;;17.44;83.06
72587;BME280;60621;49.576;11.024;2022-08-21T04:25:30;98389.88;;;17.37;83.13
72587;BME280;60621;49.576;11.024;2022-08-21T04:26:32;98394.94;;;17.28;83.06
72587;BME280;60621;49.576;11.024;2022-08-21T04:27:35;98390.41;;;17.22;84.15
72587;BME280;60621;49.576;11.024;2022-08-21T04:28:37;98398.81;;;17.20;84.18
72587;BME280;60621;49.576;11.024;2022-08-21T04:29:38;98393.09;;;17.22;84.03
72587;BME280;60621;49.576;11.024;2022-08-21T04:30:40;98394.88;;;17.32;83.68
72587;BME280;60621;49.576;11.024;2022-08-21T04:31:42;98396.34;;;17.36;83.14
72587;BME280;60621;49.576;11.024;2022-08-21T04:32:49;98398.72;;;17.31;83.51
72587;BME280;60621;49.576;11.024;2022-08-21T04:33:52;98397.94;;;17.30;83.77
72587;BME280;60621;49.576;11.024;2022-08-21T04:35:00;98401.41;;;17.27;83.88
72587;BME280;60621;49.576;11.024;2022-08-21T04:36:03;98396.88;;;17.24;84.41
72587;BME280;60621;49.576;11.024;2022-08-21T04:37:05;98399.91;;;17.23;84.25
72587;BME280;60621;49.576;11.024;2022-08-21T04:38:06;98409.06;;;17.22;84.68
72587;BME280;60621;49.576;11.024;2022-08-21T04:39:08;98407.97;;;17.19;84.54
72587;BME280;60621;49.576;11.024;2022-08-21T04:40:12;98412.16;;;17.17;84.48
72587;BME280;60621;49.576;11.024;2022-08-21T04:41:14;98411.84;;;17.11;84.87
72587;BME280;60621;49.576;11.024;2022-08-21T04:42:20;98411.13;;;17.07;85.09
72587;BME280;60621;49.576;11.024;2022-08-21T04:43:22;98411.91;;;17.04;85.12
72587;BME280;60621;49.576;11.024;2022-08-21T04:44:24;98410.75;;;17.05;85.25
72587;BME280;60621;49.576;11.024;2022-08-21T04:45:28;98413.38;;;17.08;85.46
72587;BME280;60621;49.576;11.024;2022-08-21T04:46:31;98413.47;;;16.98;85.40
72587;BME280;60621;49.576;11.024;2022-08-21T04:47:33;98416.16;;;16.98;86.28
72587;BME280;60621;49.576;11.024;2022-08-21T04:48:53;98423.03;;;16.95;86.30
72587;BME280;60621;49.576;11.024;2022-08-21T04:49:55;98417.28;;;17.00;86.13
72587;BME280;60621;49.576;11.024;2022-08-21T04:51:07;98421.78;;;17.07;85.75
72587;BME280;60621;49.576;11.024;2022-08-21T04:52:13;98422.94;;;17.06;85.13
72587;BME280;60621;49.576;11.024;2022-08-21T04:54:21;98423.28;;;17.08;85.39
72587;BME280;60621;49.576;11.024;2022-08-21T04:55:24;98421.75;;;17.10;85.29
72587;BME280;60621;49.576;11.024;2022-08-21T04:56:30;98428.94;;;17.13;84.92
72587;BME280;60621;49.576;11.024;2022-08-21T04:57:33;98427.84;;;17.11;85.25
72587;BME280;60621;49.576;11.024;2022-08-21T04:58:51;98427.09;;;17.10;85.58
72587;BME280;60621;49.576;11.024;2022-08-21T04:59:54;98423.22;;;17.19;85.17
72587;BME280;60621;49.576;11.024;2022-08-21T05:00:57;98427.63;;;17.32;84.66
72587;BME280;60621;49.576;11.024;2022-08-21T05:02:00;98427.91;;;17.45;83.56
72587;BME280;60621;49.576;11.024;2022-08-21T05:03:03;98426.31;;;17.51;83.18
72587;BME280;60621;49.576;11.024;2022-08-21T05:04:10;98430.09;;;17.54;83.10
72587;BME280;60621;49.576;11.024;2022-08-21T05:05:13;98428.88;;;17.62;82.45
72587;BME280;60621;49.576;11.024;2022-08-21T05:06:16;98433.84;;;17.60;82.47
72587;BME280;60621;49.576;11.024;2022-08-21T05:07:20;98440.03;;;17.50;82.65
72587;BME280;60621;49.576;11.024;2022-08-21T05:08:44;98435.97;;;17.38;83.45
72587;BME280;60621;49.576;11.024;2022-08-21T05:09:46;98435.63;;;17.32;84.03
72587;BME280;60621;49.576;11.024;2022-08-21T05:10:48;98435.28;;;17.30;84.27
72587;BME280;60621;49.576;11.024;2022-08-21T05:11:50;98437.09;;;17.37;84.20
72587;BME280;60621;49.576;11.024;2022-08-21T05:12:54;98443.25;;;17.34;83.81
72587;BME280;60621;49.576;11.024;2022-08-21T05:14:04;98446.34;;;17.29;84.07
72587;BME280;60621;49.576;11.024;2022-08-21T05:15:06;98437.59;;;17.28;84.65
72587;BME280;60621;49.576;11.024;2022-08-21T05:16:12;98440.28;;;17.25;84.88
72587;BME280;60621;49.576;11.024;2022-08-21T05:17:36;98443.31;;;17.23;85.13
72587;BME280;60621;49.576;11.024;2022-08-21T05:18:37;98443.72;;;17.22;85.16
72587;BME280;60621;49.576;11.024;2022-08-21T05:19:39;98436.91;;;17.17;85.38
72587;BME280;60621;49.576;11.024;2022-08-21T05:20:41;98437.66;;;17.18;85.53
72587;BME280;60621;49.576;11.024;2022-08-21T05:21:44;98433.47;;;17.20;85.64
72587;BME280;60621;49.576;11.024;2022-08-21T05:22:46;98437.25;;;17.23;85.56
72587;BME280;60621;49.576;11.024;2022-08-21T05:23:48;98441.44;;;17.24;85.33
72587;BME280;60621;49.576;11.024;2022-08-21T05:24:50;98446.38;;;17.25;85.38
72587;BME280;60621;49.576;11.024;2022-08-21T05:25:53;98437.97;;;17.27;85.45
72587;BME280;60621;49.576;11.024;2022-08-21T05:26:54;98439.09;;;17.29;84.56
72587;BME280;60621;49.576;11.024;2022-08-21T05:27:56;98442.94;;;17.28;84.35
72587;BME280;60621;49.576;11.024;2022-08-21T05:29:01;98436.78;;;17.31;84.48
72587;BME280;60621;49.576;11.024;2022-08-21T05:30:03;98438.69;;;17.31;84.03
72587;BME280;60621;49.576;11.024;2022-08-21T05:31:04;98439.00;;;17.40;83.82
72587;BME280;60621;49.576;11.024;2022-08-21T05:32:11;98443.53;;;17.43;83.11
72587;BME280;60621;49.576;11.024;2022-08-21T05:33:14;98440.47;;;17.45;83.17
72587;BME280;60621;49.576;11.024;2022-08-21T05:34:19;98443.97;;;17.38;83.42
72587;BME280;60621;49.576;11.024;2022-08-21T05:35:21;98444.47;;;17.22;84.75